Latest Coastal Weather Observations for Middle Percy Island

IDQ60701

Issued at 9:51 pm EST Sunday 24 September 2017 (issued every 10 minutes, with the page automatically refreshed every 10 minutes)

About coastal observations | Map of coastal stations | Coastal observations for QLD | Marine services | Other Formats
Station Details ID: 200001 Name: MIDDLE PERCY ISLAND Lat: -21.66 Lon: 150.27 Height: 208.7 m
Data from the previous 72 hours. | See also: Recent months at Middle Percy Island
Date/Time
EST
Temp
°C
Wind Pressure Rain since
9am
mm
Weather Cloud Vis
km
Sea
Height
m
Swell
Dir  Spd
kts
Gust
kts
hPa Trend Height
m
Period
s
Dir
24/09:30pm 20.1 N 7 10 1016.2 - - - - - - - - -
24/09:00pm 20.3 N 7 10 1016.2 - 0.0 - - - - - - -
24/08:30pm 20.4 N 7 10 1016.0 - 0.0 - - - - - - -
24/08:00pm 20.5 N 7 11 1015.8 - 0.0 - - - - - - -
24/07:30pm 20.6 N 8 12 1015.5 - 0.0 - - - - - - -
24/07:00pm 20.7 N 9 13 1015.2 - 0.0 - - - - - - -
24/06:30pm 20.8 N 8 11 1015.0 - 0.0 - - - - - - -
24/06:00pm 20.9 N 7 11 1015.0 - 0.0 - - - - - - -
24/05:30pm 21.5 N 8 12 1014.8 - 0.0 - - - - - - -
24/05:00pm 22.1 N 8 12 1014.6 - 0.0 - - - - - - -
24/04:30pm 22.7 N 10 14 1014.4 - 0.0 - - - - - - -
24/04:00pm 22.8 N 12 16 1014.2 - 0.0 - - - - - - -
24/03:30pm 23.6 N 10 15 1014.4 - 0.0 - - - - - - -
24/03:00pm 23.3 N 10 16 1014.7 - 0.0 - - - - - - -
24/02:30pm 24.3 N 9 14 1015.0 - 0.0 - - - - - - -
24/02:00pm 24.2 N 10 15 1015.4 - 0.0 - - - - - - -
24/01:30pm 24.0 N 12 17 1015.7 - 0.0 - - - - - - -
24/01:00pm 24.7 N 10 15 1015.9 - 0.0 - - - - - - -
24/12:30pm 23.9 N 10 16 1016.5 - 0.0 - - - - - - -
24/12:00pm 23.6 N 12 16 1016.8 - 0.0 - - - - - - -
24/11:30am 23.6 N 10 16 1017.3 - 0.0 - - - - - - -
24/11:00am 23.7 N 10 14 1017.5 - 0.0 - - - - - - -
24/10:30am 24.0 N 9 14 1017.9 - 0.0 - - - - - - -
24/10:00am 23.6 N 9 14 1018.2 - 0.0 - - - - - - -
24/09:30am 23.2 N 9 13 1018.4 - 0.0 - - - - - - -
24/09:00am 22.8 N 12 16 1018.4 - 0.2 - - - - - - -
24/08:30am 22.4 N 13 17 1018.2 - 0.2 - - - - - - -
24/08:00am 22.3 N 10 15 1018.0 - 0.2 - - - - - - -
24/07:30am 21.6 N 10 14 1017.7 - 0.2 - - - - - - -
24/07:00am 21.1 N 8 13 1017.4 - 0.2 - - - - - - -
24/06:30am 20.4 N 9 14 1017.0 - 0.0 - - - - - - -
24/06:00am 20.1 N 10 14 1016.7 - 0.0 - - - - - - -
24/05:30am 20.0 N 9 13 1016.6 - 0.0 - - - - - - -
24/05:00am 19.8 N 8 11 1016.4 - 0.0 - - - - - - -
24/04:30am 19.6 N 8 12 1016.1 - 0.0 - - - - - - -
24/04:00am 19.7 N 8 12 1016.0 - 0.0 - - - - - - -
24/03:30am 19.6 N 8 11 1015.8 - 0.0 - - - - - - -
24/03:00am 19.6 N 7 10 1015.8 - 0.0 - - - - - - -
24/02:30am 19.5 N 7 10 1015.9 - 0.0 - - - - - - -
24/02:00am 19.4 N 6 8 1016.4 - 0.0 - - - - - - -
24/01:30am 19.0 N 5 7 1016.6 - 0.0 - - - - - - -
24/01:00am 19.6 N 7 8 1016.8 - 0.0 - - - - - - -
24/12:30am 19.4 N 6 7 1017.1 - 0.0 - - - - - - -
24/12:00am 19.4 N 6 9 1017.5 - 0.0 - - - - - - -
 
Date/Time
EST
Temp
°C
Wind Pressure Rain since
9am
mm
Weather Cloud Vis
km
Sea
Height
m
Swell
Dir  Spd
kts
Gust
kts
hPa Trend Height
m
Period
s
Dir
23/11:30pm 19.5 N 7 9 1017.6 - 0.0 - - - - - - -
23/11:00pm 19.6 N 6 8 1017.8 - 0.0 - - - - - - -
23/10:30pm 19.7 N 5 7 1017.9 - 0.0 - - - - - - -
23/10:00pm 19.8 N 5 7 1017.9 - 0.0 - - - - - - -
23/09:30pm 19.8 N 5 6 1018.0 - 0.0 - - - - - - -
23/09:00pm 19.9 N 5 6 1017.9 - 0.0 - - - - - - -
23/08:30pm 20.4 N 6 8 1017.7 - 0.0 - - - - - - -
23/08:00pm 20.6 N 6 9 1017.5 - 0.0 - - - - - - -
23/07:30pm 20.7 N 6 9 1017.0 - 0.0 - - - - - - -
23/07:00pm 20.9 N 8 11 1016.8 - 0.0 - - - - - - -
23/06:30pm 21.1 N 7 11 1016.6 - 0.0 - - - - - - -
23/06:00pm 21.2 N 8 11 1016.5 - 0.0 - - - - - - -
23/05:30pm 21.6 N 9 14 1016.1 - 0.0 - - - - - - -
23/05:00pm 22.2 N 10 17 1015.9 - 0.0 - - - - - - -
23/04:30pm 22.8 N 9 14 1016.0 - 0.0 - - - - - - -
23/04:00pm 22.6 N 11 16 1015.9 - 0.0 - - - - - - -
23/03:30pm 23.0 N 12 16 1015.9 - 0.0 - - - - - - -
23/03:00pm 23.6 N 9 14 1016.2 - 0.0 - - - - - - -
23/02:30pm 23.8 N 11 15 1016.3 - 0.0 - - - - - - -
23/02:00pm 23.9 N 11 14 1016.6 - 0.0 - - - - - - -
23/01:30pm 24.8 N 9 14 1017.0 - 0.0 - - - - - - -
23/01:00pm 24.8 NNE 10 16 1017.3 - 0.0 - - - - - - -
23/12:30pm 24.1 NNE 10 14 1017.8 - 0.0 - - - - - - -
23/12:00pm 24.6 N 10 15 1018.1 - 0.0 - - - - - - -
23/11:30am 24.5 NNE 10 16 1018.3 - 0.0 - - - - - - -
23/11:00am 23.9 N 10 15 1018.6 - 0.0 - - - - - - -
23/10:30am 23.8 NNE 9 13 1019.1 - 0.0 - - - - - - -
23/10:00am 23.6 NNE 11 17 1019.1 - 0.0 - - - - - - -
23/09:30am 23.5 NNE 10 15 1019.4 - 0.0 - - - - - - -
23/09:00am 23.2 N 10 16 1019.6 - 0.0 - - - - - - -
23/08:30am 22.7 NNE 10 16 1019.6 - 0.0 - - - - - - -
23/08:00am 22.4 N 10 15 1019.1 - 0.0 - - - - - - -
23/07:30am 22.0 N 10 15 1018.8 - 0.0 - - - - - - -
23/07:00am 21.3 NNE 9 14 1018.2 - 0.0 - - - - - - -
23/06:30am 20.5 NNE 8 14 1017.8 - 0.0 - - - - - - -
23/06:00am 20.1 NNE 7 10 1017.6 - 0.0 - - - - - - -
23/05:30am 20.1 NNE 8 13 1017.6 - 0.0 - - - - - - -
23/05:00am 20.0 NNE 8 11 1017.3 - 0.0 - - - - - - -
23/04:30am 20.0 NNE 7 11 1017.1 - 0.0 - - - - - - -
23/04:00am 19.8 NNE 8 10 1017.0 - 0.0 - - - - - - -
23/03:30am 20.1 NNE 7 10 1017.0 - 0.0 - - - - - - -
23/03:00am 20.1 NNE 7 10 1017.0 - 0.0 - - - - - - -
23/02:30am 20.1 NNE 7 10 1017.3 - 0.0 - - - - - - -
23/02:00am 20.0 NNE 7 10 1017.4 - 0.0 - - - - - - -
23/01:30am 20.2 NNE 8 13 1017.7 - 0.0 - - - - - - -
23/01:00am 20.4 NNE 9 13 1018.1 - 0.0 - - - - - - -
23/12:30am 20.6 NNE 9 13 1018.1 - 0.0 - - - - - - -
23/12:00am 20.6 NNE 10 15 1018.3 - 0.0 - - - - - - -
 
Date/Time
EST
Temp
°C
Wind Pressure Rain since
9am
mm
Weather Cloud Vis
km
Sea
Height
m
Swell
Dir  Spd
kts
Gust
kts
hPa Trend Height
m
Period
s
Dir
22/11:30pm 20.4 NNE 9 14 1018.4 - 0.0 - - - - - - -
22/11:00pm 20.6 NNE 10 15 1018.2 - 0.0 - - - - - - -
22/10:30pm 20.7 NNE 10 14 1018.3 - 0.0 - - - - - - -
22/10:00pm 20.7 NNE 9 12 1018.4 - 0.0 - - - - - - -
22/09:30pm 20.7 NNE 8 12 1018.4 - 0.0 - - - - - - -
22/09:00pm 20.7 NE 8 12 1018.5 - 0.0 - - - - - - -
22/08:30pm 20.8 NE 8 11 1018.6 - 0.0 - - - - - - -
22/08:00pm 20.7 NNE 7 9 1018.6 - 0.0 - - - - - - -
22/07:30pm 20.8 NE 7 9 1018.4 - 0.0 - - - - - - -
22/07:00pm 20.9 NE 6 9 1018.1 - 0.0 - - - - - - -
22/06:30pm 21.0 NNE 6 8 1017.9 - 0.0 - - - - - - -
22/06:00pm 21.2 NNE 6 9 1017.7 - 0.0 - - - - - - -
22/05:30pm 21.6 NE 6 9 1017.6 - 0.0 - - - - - - -
22/05:00pm 22.3 NNE 7 11 1017.4 - 0.0 - - - - - - -
22/04:30pm 22.7 NNE 8 11 1016.9 - 0.0 - - - - - - -
22/04:00pm 23.6 N 6 11 1016.9 - 0.0 - - - - - - -
22/03:30pm 23.9 N 7 11 1016.7 - 0.0 - - - - - - -
22/03:00pm 23.8 N 10 14 1016.6 - 0.0 - - - - - - -
22/02:30pm 24.1 N 9 14 1016.8 - 0.0 - - - - - - -
22/02:00pm 24.1 N 8 11 1017.0 - 0.0 - - - - - - -
22/01:30pm 23.8 N 11 16 1017.0 - 0.0 - - - - - - -
22/01:00pm 24.2 N 11 15 1017.5 - 0.0 - - - - - - -
22/12:30pm 23.8 N 12 16 1017.5 - 0.0 - - - - - - -
22/12:00pm 24.1 N 11 15 1018.0 - 0.0 - - - - - - -
22/11:30am 23.8 N 12 17 1018.5 - 0.0 - - - - - - -
22/11:00am 23.8 N 11 14 1019.1 - 0.0 - - - - - - -
22/10:30am 23.6 N 10 13 1019.6 - 0.0 - - - - - - -
22/10:00am 24.2 N 8 11 1020.0 - 0.0 - - - - - - -
22/09:30am 23.5 N 8 12 1020.2 - 0.0 - - - - - - -
22/09:00am 23.0 NNE 11 16 1019.7 - 0.0 - - - - - - -
22/08:30am 22.9 NNE 11 16 1019.2 - 0.0 - - - - - - -
22/08:00am 22.7 NNE 11 15 1019.1 - 0.0 - - - - - - -
22/07:30am 22.1 NNE 11 16 1018.8 - 0.0 - - - - - - -
22/07:00am 21.4 N 11 15 1018.3 - 0.0 - - - - - - -
22/06:30am 20.9 N 12 15 1017.8 - 0.0 - - - - - - -
22/06:00am 20.6 N 12 16 1017.3 - 0.0 - - - - - - -
22/05:30am 20.4 NNE 15 20 1016.3 - 0.0 - - - - - - -
22/05:00am 20.4 N 14 20 1016.4 - 0.0 - - - - - - -
22/04:30am 20.4 N 15 20 1015.8 - 0.0 - - - - - - -
22/04:00am 20.4 N 14 20 1015.7 - 0.0 - - - - - - -
22/03:30am 20.4 N 15 21 1015.5 - 0.0 - - - - - - -
22/03:00am 20.4 N 16 21 1015.4 - 0.0 - - - - - - -
22/02:30am 20.4 NNE 16 21 1015.8 - 0.0 - - - - - - -
22/02:00am 20.6 NNE 17 21 1016.0 - 0.0 - - - - - - -
22/01:30am 20.6 NNE 17 22 1016.3 - 0.0 - - - - - - -
22/01:00am 20.5 NNE 17 23 1016.5 - 0.0 - - - - - - -
22/12:30am 20.6 NNE 15 19 1017.0 - 0.0 - - - - - - -
22/12:00am 20.6 NNE 13 18 1017.5 - 0.0 - - - - - - -
 
Date/Time
EST
Temp
°C
Wind Pressure Rain since
9am
mm
Weather Cloud Vis
km
Sea
Height
m
Swell
Dir  Spd
kts
Gust
kts
hPa Trend Height
m
Period
s
Dir
21/11:30pm 20.4 NNE 10 14 1017.8 - 0.0 - - - - - - -
21/11:00pm 20.4 NNE 9 13 1018.1 - 0.0 - - - - - - -
21/10:30pm 20.4 NNE 6 10 1018.3 - 0.0 - - - - - - -
21/10:00pm 20.5 NNE 9 13 1018.0 - 0.0 - - - - - - -

Other Formats:

Comma delimited format used in spreadsheet applications
http://www.bom.gov.au/fwo/IDQ60701/IDQ60701.94372.axf

JavaScript Object Notation format (JSON) in row-major order
http://www.bom.gov.au/fwo/IDQ60701/IDQ60701.94372.json